sensor_id;sensor_type;location;lat;lon;timestamp;pressure;altitude;pressure_sealevel;temperature;humidity
75745;BME280;64359;51.366;-0.222;2023-02-21T00:00:30;101843.80;;;21.30;53.83
75745;BME280;64359;51.366;-0.222;2023-02-21T00:01:50;101841.20;;;21.29;53.53
75745;BME280;64359;51.366;-0.222;2023-02-21T00:03:12;101842.44;;;21.27;53.73
75745;BME280;64359;51.366;-0.222;2023-02-21T00:04:34;101841.46;;;21.26;53.70
75745;BME280;64359;51.366;-0.222;2023-02-21T00:05:56;101843.69;;;21.26;53.66
75745;BME280;64359;51.366;-0.222;2023-02-21T00:07:19;101844.50;;;21.25;53.61
75745;BME280;64359;51.366;-0.222;2023-02-21T00:08:40;101846.53;;;21.25;53.64
75745;BME280;64359;51.366;-0.222;2023-02-21T00:10:03;101847.84;;;21.24;53.48
75745;BME280;64359;51.366;-0.222;2023-02-21T00:11:25;101848.22;;;21.24;53.45
75745;BME280;64359;51.366;-0.222;2023-02-21T00:12:47;101848.05;;;21.24;53.44
75745;BME280;64359;51.366;-0.222;2023-02-21T00:14:09;101845.96;;;21.23;53.59
75745;BME280;64359;51.366;-0.222;2023-02-21T00:15:29;101845.14;;;21.22;53.41
75745;BME280;64359;51.366;-0.222;2023-02-21T00:16:51;101845.98;;;21.20;53.42
75745;BME280;64359;51.366;-0.222;2023-02-21T00:18:13;101845.51;;;21.19;53.44
75745;BME280;64359;51.366;-0.222;2023-02-21T00:19:35;101842.15;;;21.18;53.58
75745;BME280;64359;51.366;-0.222;2023-02-21T00:20:57;101840.59;;;21.18;53.51
75745;BME280;64359;51.366;-0.222;2023-02-21T00:22:18;101842.25;;;21.17;53.41
75745;BME280;64359;51.366;-0.222;2023-02-21T00:23:40;101843.95;;;21.17;53.37
75745;BME280;64359;51.366;-0.222;2023-02-21T00:25:03;101841.41;;;21.17;53.23
75745;BME280;64359;51.366;-0.222;2023-02-21T00:26:25;101840.02;;;21.16;53.29
75745;BME280;64359;51.366;-0.222;2023-02-21T00:27:45;101840.86;;;21.15;53.31
75745;BME280;64359;51.366;-0.222;2023-02-21T00:29:07;101841.42;;;21.13;53.29
75745;BME280;64359;51.366;-0.222;2023-02-21T00:30:29;101840.82;;;21.12;53.30
75745;BME280;64359;51.366;-0.222;2023-02-21T00:31:49;101839.46;;;21.11;53.30
75745;BME280;64359;51.366;-0.222;2023-02-21T00:33:11;101839.73;;;21.09;53.30
75745;BME280;64359;51.366;-0.222;2023-02-21T00:34:33;101836.98;;;21.07;53.11
75745;BME280;64359;51.366;-0.222;2023-02-21T00:35:54;101835.76;;;21.07;52.92
75745;BME280;64359;51.366;-0.222;2023-02-21T00:37:16;101836.67;;;21.07;53.09
75745;BME280;64359;51.366;-0.222;2023-02-21T00:38:38;101837.48;;;21.06;53.05
75745;BME280;64359;51.366;-0.222;2023-02-21T00:40:01;101837.67;;;21.06;53.18
75745;BME280;64359;51.366;-0.222;2023-02-21T00:41:23;101832.85;;;21.05;53.04
75745;BME280;64359;51.366;-0.222;2023-02-21T00:42:45;101831.31;;;21.04;52.97
75745;BME280;64359;51.366;-0.222;2023-02-21T00:44:05;101827.39;;;21.04;53.10
75745;BME280;64359;51.366;-0.222;2023-02-21T00:45:27;101824.95;;;21.02;53.08
75745;BME280;64359;51.366;-0.222;2023-02-21T00:46:49;101825.65;;;21.02;52.99
75745;BME280;64359;51.366;-0.222;2023-02-21T00:48:11;101825.59;;;21.01;53.15
75745;BME280;64359;51.366;-0.222;2023-02-21T00:49:33;101825.04;;;21.01;53.26
75745;BME280;64359;51.366;-0.222;2023-02-21T00:50:54;101823.65;;;21.00;52.93
75745;BME280;64359;51.366;-0.222;2023-02-21T00:52:16;101823.55;;;21.00;53.02
75745;BME280;64359;51.366;-0.222;2023-02-21T00:53:37;101821.75;;;20.99;53.03
75745;BME280;64359;51.366;-0.222;2023-02-21T00:54:57;101823.68;;;20.97;53.12
75745;BME280;64359;51.366;-0.222;2023-02-21T00:56:19;101822.59;;;20.95;53.23
75745;BME280;64359;51.366;-0.222;2023-02-21T00:57:41;101822.15;;;20.94;53.09
75745;BME280;64359;51.366;-0.222;2023-02-21T00:59:02;101820.93;;;20.94;53.21
75745;BME280;64359;51.366;-0.222;2023-02-21T01:00:25;101819.55;;;20.93;53.11
75745;BME280;64359;51.366;-0.222;2023-02-21T01:01:47;101821.20;;;20.93;53.14
75745;BME280;64359;51.366;-0.222;2023-02-21T01:03:09;101820.12;;;20.93;52.96
75745;BME280;64359;51.366;-0.222;2023-02-21T01:04:31;101822.83;;;20.93;53.16
75745;BME280;64359;51.366;-0.222;2023-02-21T01:05:53;101817.98;;;20.93;53.07
75745;BME280;64359;51.366;-0.222;2023-02-21T01:07:15;101818.59;;;20.92;53.03
75745;BME280;64359;51.366;-0.222;2023-02-21T01:08:41;101815.54;;;20.92;52.93
75745;BME280;64359;51.366;-0.222;2023-02-21T01:10:04;101813.95;;;20.92;53.26
75745;BME280;64359;51.366;-0.222;2023-02-21T01:11:27;101811.47;;;20.91;53.46
75745;BME280;64359;51.366;-0.222;2023-02-21T01:12:49;101808.09;;;20.91;53.33
75745;BME280;64359;51.366;-0.222;2023-02-21T01:14:11;101802.64;;;20.91;53.63
75745;BME280;64359;51.366;-0.222;2023-02-21T01:15:34;101806.22;;;20.91;53.65
75745;BME280;64359;51.366;-0.222;2023-02-21T01:16:55;101804.42;;;20.91;53.59
75745;BME280;64359;51.366;-0.222;2023-02-21T01:18:17;101804.16;;;20.92;54.08
75745;BME280;64359;51.366;-0.222;2023-02-21T01:19:39;101804.81;;;20.93;53.80
75745;BME280;64359;51.366;-0.222;2023-02-21T01:20:59;101805.21;;;20.94;54.31
75745;BME280;64359;51.366;-0.222;2023-02-21T01:22:21;101803.45;;;20.93;54.58
75745;BME280;64359;51.366;-0.222;2023-02-21T01:23:43;101806.34;;;20.95;54.61
75745;BME280;64359;51.366;-0.222;2023-02-21T01:25:06;101802.78;;;20.96;54.66
75745;BME280;64359;51.366;-0.222;2023-02-21T01:26:28;101797.50;;;20.98;55.06
75745;BME280;64359;51.366;-0.222;2023-02-21T01:27:50;101796.12;;;20.99;54.58
75745;BME280;64359;51.366;-0.222;2023-02-21T01:29:13;101793.73;;;21.01;54.27
75745;BME280;64359;51.366;-0.222;2023-02-21T01:30:35;101796.06;;;21.03;54.18
75745;BME280;64359;51.366;-0.222;2023-02-21T01:31:57;101794.40;;;21.05;54.41
75745;BME280;64359;51.366;-0.222;2023-02-21T01:33:19;101794.78;;;21.07;54.52
75745;BME280;64359;51.366;-0.222;2023-02-21T01:34:41;101792.65;;;21.08;54.07
75745;BME280;64359;51.366;-0.222;2023-02-21T01:36:05;101794.27;;;21.10;54.40
75745;BME280;64359;51.366;-0.222;2023-02-21T01:37:26;101790.52;;;21.11;54.31
75745;BME280;64359;51.366;-0.222;2023-02-21T01:38:48;101790.18;;;21.12;53.96
75745;BME280;64359;51.366;-0.222;2023-02-21T01:40:14;101788.05;;;21.14;54.02
75745;BME280;64359;51.366;-0.222;2023-02-21T01:41:37;101785.23;;;21.15;53.90
75745;BME280;64359;51.366;-0.222;2023-02-21T01:42:57;101785.58;;;21.17;53.79
75745;BME280;64359;51.366;-0.222;2023-02-21T01:44:35;101782.54;;;21.17;53.86
75745;BME280;64359;51.366;-0.222;2023-02-21T01:45:58;101779.21;;;21.17;53.89
75745;BME280;64359;51.366;-0.222;2023-02-21T01:47:21;101774.41;;;21.18;53.79
75745;BME280;64359;51.366;-0.222;2023-02-21T01:48:43;101773.02;;;21.19;53.56
75745;BME280;64359;51.366;-0.222;2023-02-21T01:50:12;101769.96;;;21.21;53.29
75745;BME280;64359;51.366;-0.222;2023-02-21T01:51:38;101767.50;;;21.22;53.31
75745;BME280;64359;51.366;-0.222;2023-02-21T01:53:04;101771.19;;;21.23;53.32
75745;BME280;64359;51.366;-0.222;2023-02-21T01:54:30;101765.47;;;21.24;53.70
75745;BME280;64359;51.366;-0.222;2023-02-21T01:55:54;101766.32;;;21.25;53.73
75745;BME280;64359;51.366;-0.222;2023-02-21T01:57:17;101766.76;;;21.26;53.98
75745;BME280;64359;51.366;-0.222;2023-02-21T01:58:39;101763.44;;;21.26;54.38
75745;BME280;64359;51.366;-0.222;2023-02-21T02:00:06;101766.62;;;21.27;54.38
75745;BME280;64359;51.366;-0.222;2023-02-21T02:01:34;101765.98;;;21.27;54.50
75745;BME280;64359;51.366;-0.222;2023-02-21T02:03:01;101759.08;;;21.28;54.27
75745;BME280;64359;51.366;-0.222;2023-02-21T02:04:23;101754.33;;;21.28;54.16
75745;BME280;64359;51.366;-0.222;2023-02-21T02:05:47;101755.79;;;21.28;54.36
75745;BME280;64359;51.366;-0.222;2023-02-21T02:07:10;101755.58;;;21.28;54.34
75745;BME280;64359;51.366;-0.222;2023-02-21T02:08:32;101755.58;;;21.29;54.78
75745;BME280;64359;51.366;-0.222;2023-02-21T02:09:54;101756.60;;;21.29;54.46
75745;BME280;64359;51.366;-0.222;2023-02-21T02:11:29;101753.20;;;21.29;54.64
75745;BME280;64359;51.366;-0.222;2023-02-21T02:13:05;101753.78;;;21.28;54.64
75745;BME280;64359;51.366;-0.222;2023-02-21T02:14:26;101752.52;;;21.29;54.31
75745;BME280;64359;51.366;-0.222;2023-02-21T02:15:51;101749.92;;;21.27;54.58
75745;BME280;64359;51.366;-0.222;2023-02-21T02:17:03;101749.52;;;21.28;54.72
75745;BME280;64359;51.366;-0.222;2023-02-21T02:20:12;101746.90;;;21.27;54.82
75745;BME280;64359;51.366;-0.222;2023-02-21T02:22:04;101743.92;;;21.26;54.66
75745;BME280;64359;51.366;-0.222;2023-02-21T02:23:33;101744.02;;;21.25;54.76
75745;BME280;64359;51.366;-0.222;2023-02-21T02:25:01;101736.27;;;21.25;54.80
75745;BME280;64359;51.366;-0.222;2023-02-21T02:27:49;101731.48;;;21.24;54.76
75745;BME280;64359;51.366;-0.222;2023-02-21T02:29:10;101728.77;;;21.22;54.71
75745;BME280;64359;51.366;-0.222;2023-02-21T02:30:39;101729.23;;;21.22;54.52
75745;BME280;64359;51.366;-0.222;2023-02-21T02:32:03;101724.55;;;21.21;54.83
75745;BME280;64359;51.366;-0.222;2023-02-21T02:33:28;101725.30;;;21.21;54.50
75745;BME280;64359;51.366;-0.222;2023-02-21T02:34:55;101722.14;;;21.20;54.37
75745;BME280;64359;51.366;-0.222;2023-02-21T02:36:07;101725.40;;;21.20;54.17
75745;BME280;64359;51.366;-0.222;2023-02-21T02:37:20;101722.82;;;21.21;54.24
75745;BME280;64359;51.366;-0.222;2023-02-21T02:38:29;101722.48;;;21.20;53.76
75745;BME280;64359;51.366;-0.222;2023-02-21T02:39:40;101722.27;;;21.21;53.98
75745;BME280;64359;51.366;-0.222;2023-02-21T02:40:58;101723.20;;;21.20;53.96
75745;BME280;64359;51.366;-0.222;2023-02-21T02:42:09;101721.40;;;21.20;53.81
75745;BME280;64359;51.366;-0.222;2023-02-21T02:43:18;101716.83;;;21.21;53.87
75745;BME280;64359;51.366;-0.222;2023-02-21T02:44:27;101717.06;;;21.20;53.61
75745;BME280;64359;51.366;-0.222;2023-02-21T02:45:38;101714.63;;;21.21;53.74
75745;BME280;64359;51.366;-0.222;2023-02-21T02:46:47;101713.77;;;21.21;53.86
75745;BME280;64359;51.366;-0.222;2023-02-21T02:47:56;101713.70;;;21.22;53.66
75745;BME280;64359;51.366;-0.222;2023-02-21T02:49:01;101713.67;;;21.22;54.04
75745;BME280;64359;51.366;-0.222;2023-02-21T02:50:08;101713.30;;;21.19;53.96
75745;BME280;64359;51.366;-0.222;2023-02-21T02:51:14;101715.64;;;21.19;53.94
75745;BME280;64359;51.366;-0.222;2023-02-21T02:52:19;101715.27;;;21.19;53.62
75745;BME280;64359;51.366;-0.222;2023-02-21T02:53:27;101713.14;;;21.18;53.37
75745;BME280;64359;51.366;-0.222;2023-02-21T02:54:32;101716.02;;;21.19;53.46
75745;BME280;64359;51.366;-0.222;2023-02-21T02:55:40;101712.08;;;21.18;53.62
75745;BME280;64359;51.366;-0.222;2023-02-21T02:56:46;101711.00;;;21.18;53.51
75745;BME280;64359;51.366;-0.222;2023-02-21T02:57:52;101708.49;;;21.18;53.24
75745;BME280;64359;51.366;-0.222;2023-02-21T02:58:59;101705.23;;;21.18;53.43
75745;BME280;64359;51.366;-0.222;2023-02-21T03:00:07;101705.27;;;21.18;53.44
75745;BME280;64359;51.366;-0.222;2023-02-21T03:01:25;101703.30;;;21.17;53.29
75745;BME280;64359;51.366;-0.222;2023-02-21T03:02:45;101702.09;;;21.17;53.28
75745;BME280;64359;51.366;-0.222;2023-02-21T03:04:01;101702.87;;;21.17;53.24
75745;BME280;64359;51.366;-0.222;2023-02-21T03:05:40;101701.20;;;21.15;53.14
75745;BME280;64359;51.366;-0.222;2023-02-21T03:06:53;101700.84;;;21.13;53.11
75745;BME280;64359;51.366;-0.222;2023-02-21T03:08:07;101699.55;;;21.14;52.92
75745;BME280;64359;51.366;-0.222;2023-02-21T03:09:22;101696.98;;;21.12;53.19
75745;BME280;64359;51.366;-0.222;2023-02-21T03:10:37;101697.55;;;21.12;53.17
75745;BME280;64359;51.366;-0.222;2023-02-21T03:11:53;101697.08;;;21.12;53.29
75745;BME280;64359;51.366;-0.222;2023-02-21T03:13:04;101694.20;;;21.11;53.13
75745;BME280;64359;51.366;-0.222;2023-02-21T03:14:15;101697.32;;;21.11;53.03
75745;BME280;64359;51.366;-0.222;2023-02-21T03:15:23;101691.93;;;21.11;52.85
75745;BME280;64359;51.366;-0.222;2023-02-21T03:16:31;101690.88;;;21.10;52.95
75745;BME280;64359;51.366;-0.222;2023-02-21T03:17:41;101691.27;;;21.10;52.93
75745;BME280;64359;51.366;-0.222;2023-02-21T03:18:49;101687.73;;;21.09;52.69
75745;BME280;64359;51.366;-0.222;2023-02-21T03:19:56;101687.52;;;21.10;52.94
75745;BME280;64359;51.366;-0.222;2023-02-21T03:21:04;101687.43;;;21.09;52.84
75745;BME280;64359;51.366;-0.222;2023-02-21T03:22:14;101688.54;;;21.09;52.81
75745;BME280;64359;51.366;-0.222;2023-02-21T03:23:20;101688.41;;;21.08;52.81
75745;BME280;64359;51.366;-0.222;2023-02-21T03:24:26;101688.61;;;21.08;52.95
75745;BME280;64359;51.366;-0.222;2023-02-21T03:25:32;101685.97;;;21.08;53.00
75745;BME280;64359;51.366;-0.222;2023-02-21T03:26:39;101683.13;;;21.07;52.90
75745;BME280;64359;51.366;-0.222;2023-02-21T03:27:45;101685.11;;;21.07;53.18
75745;BME280;64359;51.366;-0.222;2023-02-21T03:28:50;101681.90;;;21.07;52.86
75745;BME280;64359;51.366;-0.222;2023-02-21T03:29:58;101683.36;;;21.07;52.98
75745;BME280;64359;51.366;-0.222;2023-02-21T03:31:06;101683.28;;;21.06;53.01
75745;BME280;64359;51.366;-0.222;2023-02-21T03:32:14;101682.73;;;21.06;52.99
75745;BME280;64359;51.366;-0.222;2023-02-21T03:33:20;101684.80;;;21.05;52.67
75745;BME280;64359;51.366;-0.222;2023-02-21T03:34:25;101682.65;;;21.05;52.67
75745;BME280;64359;51.366;-0.222;2023-02-21T03:35:30;101678.11;;;21.05;53.08
75745;BME280;64359;51.366;-0.222;2023-02-21T03:36:36;101679.60;;;21.05;52.72
75745;BME280;64359;51.366;-0.222;2023-02-21T03:37:42;101676.79;;;21.04;52.81
75745;BME280;64359;51.366;-0.222;2023-02-21T03:38:47;101678.08;;;21.03;52.82
75745;BME280;64359;51.366;-0.222;2023-02-21T03:39:52;101677.77;;;21.03;52.73
75745;BME280;64359;51.366;-0.222;2023-02-21T03:40:56;101676.92;;;21.02;52.76
75745;BME280;64359;51.366;-0.222;2023-02-21T03:42:01;101677.48;;;21.02;52.72
75745;BME280;64359;51.366;-0.222;2023-02-21T03:43:06;101679.50;;;21.02;52.86
75745;BME280;64359;51.366;-0.222;2023-02-21T03:44:10;101675.71;;;21.02;52.84
75745;BME280;64359;51.366;-0.222;2023-02-21T03:45:14;101677.70;;;21.02;52.79
75745;BME280;64359;51.366;-0.222;2023-02-21T03:46:19;101676.02;;;21.01;52.73
75745;BME280;64359;51.366;-0.222;2023-02-21T03:47:23;101677.30;;;21.01;52.52
75745;BME280;64359;51.366;-0.222;2023-02-21T03:48:28;101675.70;;;21.00;52.73
75745;BME280;64359;51.366;-0.222;2023-02-21T03:49:32;101679.02;;;21.00;52.53
75745;BME280;64359;51.366;-0.222;2023-02-21T03:50:37;101678.14;;;21.00;52.69
75745;BME280;64359;51.366;-0.222;2023-02-21T03:51:41;101677.47;;;20.99;52.63
75745;BME280;64359;51.366;-0.222;2023-02-21T03:52:45;101679.34;;;20.99;52.78
75745;BME280;64359;51.366;-0.222;2023-02-21T03:53:50;101676.79;;;20.99;52.69
75745;BME280;64359;51.366;-0.222;2023-02-21T03:54:54;101678.11;;;20.98;52.56
75745;BME280;64359;51.366;-0.222;2023-02-21T03:55:58;101678.05;;;20.97;52.50
75745;BME280;64359;51.366;-0.222;2023-02-21T03:57:03;101675.02;;;20.97;52.42
75745;BME280;64359;51.366;-0.222;2023-02-21T03:58:07;101676.52;;;20.97;52.38
75745;BME280;64359;51.366;-0.222;2023-02-21T03:59:12;101670.80;;;20.96;52.41
75745;BME280;64359;51.366;-0.222;2023-02-21T04:00:17;101674.12;;;20.95;52.26
75745;BME280;64359;51.366;-0.222;2023-02-21T04:01:21;101671.27;;;20.95;52.47
75745;BME280;64359;51.366;-0.222;2023-02-21T04:02:26;101671.30;;;20.95;52.21
75745;BME280;64359;51.366;-0.222;2023-02-21T04:03:30;101671.52;;;20.95;52.37
75745;BME280;64359;51.366;-0.222;2023-02-21T04:04:35;101670.52;;;20.94;52.36
75745;BME280;64359;51.366;-0.222;2023-02-21T04:05:39;101669.44;;;20.94;52.37
75745;BME280;64359;51.366;-0.222;2023-02-21T04:06:44;101669.51;;;20.93;52.40
75745;BME280;64359;51.366;-0.222;2023-02-21T04:07:48;101668.52;;;20.92;52.50
75745;BME280;64359;51.366;-0.222;2023-02-21T04:08:53;101669.64;;;20.92;52.36
75745;BME280;64359;51.366;-0.222;2023-02-21T04:09:59;101669.41;;;20.91;52.20
75745;BME280;64359;51.366;-0.222;2023-02-21T04:11:04;101669.27;;;20.90;52.46
75745;BME280;64359;51.366;-0.222;2023-02-21T04:12:09;101667.10;;;20.90;52.61
75745;BME280;64359;51.366;-0.222;2023-02-21T04:13:14;101667.88;;;20.90;52.72
75745;BME280;64359;51.366;-0.222;2023-02-21T04:14:19;101663.63;;;20.89;52.67
75745;BME280;64359;51.366;-0.222;2023-02-21T04:15:23;101664.23;;;20.89;52.62
75745;BME280;64359;51.366;-0.222;2023-02-21T04:16:27;101662.05;;;20.88;52.68
75745;BME280;64359;51.366;-0.222;2023-02-21T04:17:32;101661.55;;;20.88;52.83
75745;BME280;64359;51.366;-0.222;2023-02-21T04:18:36;101661.38;;;20.88;52.65
75745;BME280;64359;51.366;-0.222;2023-02-21T04:19:41;101661.18;;;20.89;52.94
75745;BME280;64359;51.366;-0.222;2023-02-21T04:20:45;101661.71;;;20.88;52.69
75745;BME280;64359;51.366;-0.222;2023-02-21T04:21:49;101658.73;;;20.89;52.98
75745;BME280;64359;51.366;-0.222;2023-02-21T04:22:54;101656.70;;;20.90;53.29
75745;BME280;64359;51.366;-0.222;2023-02-21T04:23:58;101655.89;;;20.90;53.63
75745;BME280;64359;51.366;-0.222;2023-02-21T04:25:03;101657.96;;;20.91;53.44
75745;BME280;64359;51.366;-0.222;2023-02-21T04:26:07;101655.12;;;20.93;53.55
75745;BME280;64359;51.366;-0.222;2023-02-21T04:27:11;101656.81;;;20.93;53.50
75745;BME280;64359;51.366;-0.222;2023-02-21T04:28:16;101654.75;;;20.94;53.56
75745;BME280;64359;51.366;-0.222;2023-02-21T04:29:20;101653.20;;;20.95;53.74
75745;BME280;64359;51.366;-0.222;2023-02-21T04:30:24;101655.79;;;20.96;53.57
75745;BME280;64359;51.366;-0.222;2023-02-21T04:31:29;101656.23;;;20.97;53.13
75745;BME280;64359;51.366;-0.222;2023-02-21T04:32:34;101656.00;;;20.98;52.75
75745;BME280;64359;51.366;-0.222;2023-02-21T04:33:38;101659.55;;;21.00;53.38
75745;BME280;64359;51.366;-0.222;2023-02-21T04:34:43;101657.25;;;21.01;52.64
75745;BME280;64359;51.366;-0.222;2023-02-21T04:35:47;101655.90;;;21.02;52.86
75745;BME280;64359;51.366;-0.222;2023-02-21T04:36:52;101655.05;;;21.03;52.95
75745;BME280;64359;51.366;-0.222;2023-02-21T04:37:57;101657.09;;;21.04;53.17
75745;BME280;64359;51.366;-0.222;2023-02-21T04:39:01;101652.79;;;21.05;52.26
75745;BME280;64359;51.366;-0.222;2023-02-21T04:40:07;101650.56;;;21.06;52.34
75745;BME280;64359;51.366;-0.222;2023-02-21T04:41:12;101647.19;;;21.07;52.15
75745;BME280;64359;51.366;-0.222;2023-02-21T04:42:16;101646.55;;;21.08;52.02
75745;BME280;64359;51.366;-0.222;2023-02-21T04:43:20;101646.92;;;21.09;51.94
75745;BME280;64359;51.366;-0.222;2023-02-21T04:44:25;101648.11;;;21.10;51.92
75745;BME280;64359;51.366;-0.222;2023-02-21T04:45:29;101650.71;;;21.11;51.90
75745;BME280;64359;51.366;-0.222;2023-02-21T04:46:34;101648.23;;;21.12;52.00
75745;BME280;64359;51.366;-0.222;2023-02-21T04:47:38;101649.53;;;21.13;51.98
75745;BME280;64359;51.366;-0.222;2023-02-21T04:48:43;101647.22;;;21.15;51.88
75745;BME280;64359;51.366;-0.222;2023-02-21T04:49:48;101653.24;;;21.16;51.75
75745;BME280;64359;51.366;-0.222;2023-02-21T04:50:53;101650.23;;;21.17;51.67
75745;BME280;64359;51.366;-0.222;2023-02-21T04:51:58;101650.17;;;21.18;51.67
75745;BME280;64359;51.366;-0.222;2023-02-21T04:53:02;101648.06;;;21.19;51.72
75745;BME280;64359;51.366;-0.222;2023-02-21T04:54:06;101645.45;;;21.19;51.48
75745;BME280;64359;51.366;-0.222;2023-02-21T04:55:11;101646.40;;;21.21;51.57
75745;BME280;64359;51.366;-0.222;2023-02-21T04:56:16;101646.27;;;21.22;51.55
75745;BME280;64359;51.366;-0.222;2023-02-21T04:57:20;101641.15;;;21.23;51.63
75745;BME280;64359;51.366;-0.222;2023-02-21T04:58:25;101643.63;;;21.23;51.46
75745;BME280;64359;51.366;-0.222;2023-02-21T04:59:29;101643.38;;;21.24;51.48
75745;BME280;64359;51.366;-0.222;2023-02-21T05:00:33;101645.11;;;21.24;51.55
75745;BME280;64359;51.366;-0.222;2023-02-21T05:01:38;101639.80;;;21.25;51.45
75745;BME280;64359;51.366;-0.222;2023-02-21T05:02:45;101640.43;;;21.26;51.54
75745;BME280;64359;51.366;-0.222;2023-02-21T05:03:49;101641.08;;;21.27;51.49
75745;BME280;64359;51.366;-0.222;2023-02-21T05:04:54;101642.13;;;21.27;51.42
75745;BME280;64359;51.366;-0.222;2023-02-21T05:05:58;101642.56;;;21.28;51.51
75745;BME280;64359;51.366;-0.222;2023-02-21T05:07:03;101643.58;;;21.28;51.37
75745;BME280;64359;51.366;-0.222;2023-02-21T05:08:08;101643.14;;;21.29;51.34
75745;BME280;64359;51.366;-0.222;2023-02-21T05:09:12;101638.25;;;21.30;51.59
75745;BME280;64359;51.366;-0.222;2023-02-21T05:10:17;101640.69;;;21.30;51.63
75745;BME280;64359;51.366;-0.222;2023-02-21T05:11:22;101639.23;;;21.30;51.31
75745;BME280;64359;51.366;-0.222;2023-02-21T05:12:27;101637.92;;;21.31;51.45
75745;BME280;64359;51.366;-0.222;2023-02-21T05:13:31;101634.25;;;21.31;51.48
75745;BME280;64359;51.366;-0.222;2023-02-21T05:14:36;101639.37;;;21.32;51.31
75745;BME280;64359;51.366;-0.222;2023-02-21T05:15:41;101637.04;;;21.32;51.26
75745;BME280;64359;51.366;-0.222;2023-02-21T05:16:47;101635.88;;;21.33;51.31
75745;BME280;64359;51.366;-0.222;2023-02-21T05:17:53;101636.21;;;21.33;51.43
75745;BME280;64359;51.366;-0.222;2023-02-21T05:18:58;101633.44;;;21.33;51.44
75745;BME280;64359;51.366;-0.222;2023-02-21T05:20:05;101633.91;;;21.34;51.49
75745;BME280;64359;51.366;-0.222;2023-02-21T05:21:14;101633.91;;;21.34;51.53
75745;BME280;64359;51.366;-0.222;2023-02-21T05:22:19;101632.29;;;21.34;51.82
75745;BME280;64359;51.366;-0.222;2023-02-21T05:23:24;101632.29;;;21.34;52.28
75745;BME280;64359;51.366;-0.222;2023-02-21T05:24:40;101632.09;;;21.34;52.11
75745;BME280;64359;51.366;-0.222;2023-02-21T05:25:45;101625.95;;;21.34;52.31
75745;BME280;64359;51.366;-0.222;2023-02-21T05:26:50;101624.16;;;21.34;51.90
75745;BME280;64359;51.366;-0.222;2023-02-21T05:27:55;101622.66;;;21.35;52.39
75745;BME280;64359;51.366;-0.222;2023-02-21T05:28:59;101620.33;;;21.34;51.97
75745;BME280;64359;51.366;-0.222;2023-02-21T05:30:06;101621.92;;;21.35;52.21
75745;BME280;64359;51.366;-0.222;2023-02-21T05:31:10;101623.00;;;21.35;52.20
75745;BME280;64359;51.366;-0.222;2023-02-21T05:32:15;101620.97;;;21.35;52.56
75745;BME280;64359;51.366;-0.222;2023-02-21T05:33:20;101622.09;;;21.35;52.45
75745;BME280;64359;51.366;-0.222;2023-02-21T05:34:24;101624.46;;;21.35;52.37
75745;BME280;64359;51.366;-0.222;2023-02-21T05:35:28;101624.05;;;21.35;52.26
75745;BME280;64359;51.366;-0.222;2023-02-21T05:36:33;101625.11;;;21.35;52.29
75745;BME280;64359;51.366;-0.222;2023-02-21T05:37:37;101620.98;;;21.35;52.11
75745;BME280;64359;51.366;-0.222;2023-02-21T05:38:49;101620.63;;;21.35;52.00
75745;BME280;64359;51.366;-0.222;2023-02-21T05:39:54;101618.42;;;21.35;52.06
75745;BME280;64359;51.366;-0.222;2023-02-21T05:40:58;101622.92;;;21.35;52.03
75745;BME280;64359;51.366;-0.222;2023-02-21T05:42:03;101620.80;;;21.35;51.98
75745;BME280;64359;51.366;-0.222;2023-02-21T05:43:08;101618.22;;;21.35;51.74
75745;BME280;64359;51.366;-0.222;2023-02-21T05:44:12;101617.98;;;21.36;51.87
75745;BME280;64359;51.366;-0.222;2023-02-21T05:45:17;101619.41;;;21.36;51.60
75745;BME280;64359;51.366;-0.222;2023-02-21T05:46:24;101619.41;;;21.36;52.26
75745;BME280;64359;51.366;-0.222;2023-02-21T05:47:29;101617.78;;;21.36;51.54
75745;BME280;64359;51.366;-0.222;2023-02-21T05:48:33;101620.29;;;21.36;51.73
75745;BME280;64359;51.366;-0.222;2023-02-21T05:49:38;101620.77;;;21.37;51.33
75745;BME280;64359;51.366;-0.222;2023-02-21T05:50:42;101622.02;;;21.37;51.22
75745;BME280;64359;51.366;-0.222;2023-02-21T05:51:47;101617.48;;;21.37;51.21
75745;BME280;64359;51.366;-0.222;2023-02-21T05:52:51;101622.21;;;21.38;51.07
75745;BME280;64359;51.366;-0.222;2023-02-21T05:53:56;101619.49;;;21.38;51.04
75745;BME280;64359;51.366;-0.222;2023-02-21T05:55:00;101618.19;;;21.39;51.06
75745;BME280;64359;51.366;-0.222;2023-02-21T05:56:05;101621.33;;;21.40;51.07
75745;BME280;64359;51.366;-0.222;2023-02-21T05:57:09;101621.13;;;21.40;51.03
75745;BME280;64359;51.366;-0.222;2023-02-21T05:58:14;101618.59;;;21.40;51.01
75745;BME280;64359;51.366;-0.222;2023-02-21T05:59:19;101621.40;;;21.41;50.96
75745;BME280;64359;51.366;-0.222;2023-02-21T06:00:26;101620.24;;;21.41;50.91
75745;BME280;64359;51.366;-0.222;2023-02-21T06:01:31;101620.78;;;21.42;50.92
75745;BME280;64359;51.366;-0.222;2023-02-21T06:02:35;101618.71;;;21.42;51.08
75745;BME280;64359;51.366;-0.222;2023-02-21T06:03:39;101617.66;;;21.42;51.07
75745;BME280;64359;51.366;-0.222;2023-02-21T06:04:45;101619.59;;;21.42;50.99
75745;BME280;64359;51.366;-0.222;2023-02-21T06:05:49;101617.70;;;21.43;50.94
75745;BME280;64359;51.366;-0.222;2023-02-21T06:06:54;101616.11;;;21.43;50.90
75745;BME280;64359;51.366;-0.222;2023-02-21T06:07:59;101616.98;;;21.43;50.96
75745;BME280;64359;51.366;-0.222;2023-02-21T06:09:04;101616.55;;;21.44;50.92
75745;BME280;64359;51.366;-0.222;2023-02-21T06:10:09;101620.13;;;21.44;51.12
75745;BME280;64359;51.366;-0.222;2023-02-21T06:11:14;101618.51;;;21.44;51.65
75745;BME280;64359;51.366;-0.222;2023-02-21T06:12:18;101618.67;;;21.44;51.19
75745;BME280;64359;51.366;-0.222;2023-02-21T06:13:23;101618.84;;;21.44;51.74
75745;BME280;64359;51.366;-0.222;2023-02-21T06:14:27;101622.06;;;21.44;51.37
75745;BME280;64359;51.366;-0.222;2023-02-21T06:15:32;101624.77;;;21.44;51.37